sensor_id;sensor_type;location;lat;lon;timestamp;P1;durP1;ratioP1;P2;durP2;ratioP2
13079;SDS011;6606;49.154;9.280;2022-08-20T00:00:33;7.97;;;7.18;;
13079;SDS011;6606;49.154;9.280;2022-08-20T00:03:02;7.80;;;6.97;;
13079;SDS011;6606;49.154;9.280;2022-08-20T00:05:31;6.82;;;6.22;;
13079;SDS011;6606;49.154;9.280;2022-08-20T00:08:00;6.75;;;6.13;;
13079;SDS011;6606;49.154;9.280;2022-08-20T00:10:28;8.13;;;6.15;;
13079;SDS011;6606;49.154;9.280;2022-08-20T00:12:57;6.63;;;6.03;;
13079;SDS011;6606;49.154;9.280;2022-08-20T00:15:25;6.25;;;5.65;;
13079;SDS011;6606;49.154;9.280;2022-08-20T00:17:55;6.90;;;6.13;;
13079;SDS011;6606;49.154;9.280;2022-08-20T00:20:23;7.20;;;5.60;;
13079;SDS011;6606;49.154;9.280;2022-08-20T00:22:53;6.43;;;5.70;;
13079;SDS011;6606;49.154;9.280;2022-08-20T00:25:20;5.65;;;4.65;;
13079;SDS011;6606;49.154;9.280;2022-08-20T00:27:47;6.20;;;4.97;;
13079;SDS011;6606;49.154;9.280;2022-08-20T00:30:14;8.25;;;5.45;;
13079;SDS011;6606;49.154;9.280;2022-08-20T00:32:42;5.22;;;4.72;;
13079;SDS011;6606;49.154;9.280;2022-08-20T00:35:12;5.28;;;4.70;;
13079;SDS011;6606;49.154;9.280;2022-08-20T00:37:40;5.88;;;4.95;;
13079;SDS011;6606;49.154;9.280;2022-08-20T00:40:08;6.00;;;4.80;;
13079;SDS011;6606;49.154;9.280;2022-08-20T00:42:41;5.50;;;5.00;;
13079;SDS011;6606;49.154;9.280;2022-08-20T00:45:09;5.30;;;4.80;;
13079;SDS011;6606;49.154;9.280;2022-08-20T00:47:36;5.70;;;5.13;;
13079;SDS011;6606;49.154;9.280;2022-08-20T00:50:06;5.15;;;4.65;;
13079;SDS011;6606;49.154;9.280;2022-08-20T00:52:35;5.63;;;5.10;;
13079;SDS011;6606;49.154;9.280;2022-08-20T00:55:02;6.15;;;5.55;;
13079;SDS011;6606;49.154;9.280;2022-08-20T00:57:31;6.75;;;5.72;;
13079;SDS011;6606;49.154;9.280;2022-08-20T01:00:00;6.32;;;5.72;;
13079;SDS011;6606;49.154;9.280;2022-08-20T01:02:31;5.93;;;5.43;;
13079;SDS011;6606;49.154;9.280;2022-08-20T01:04:59;5.70;;;4.50;;
13079;SDS011;6606;49.154;9.280;2022-08-20T01:07:26;4.75;;;4.15;;
13079;SDS011;6606;49.154;9.280;2022-08-20T01:10:00;6.35;;;5.28;;
13079;SDS011;6606;49.154;9.280;2022-08-20T01:12:30;5.82;;;4.10;;
13079;SDS011;6606;49.154;9.280;2022-08-20T01:14:57;4.97;;;4.45;;
13079;SDS011;6606;49.154;9.280;2022-08-20T01:17:27;5.13;;;4.63;;
13079;SDS011;6606;49.154;9.280;2022-08-20T01:19:57;6.65;;;4.30;;
13079;SDS011;6606;49.154;9.280;2022-08-20T01:22:27;5.35;;;4.10;;
13079;SDS011;6606;49.154;9.280;2022-08-20T01:25:22;3.80;;;3.45;;
13079;SDS011;6606;49.154;9.280;2022-08-20T01:27:56;5.50;;;3.65;;
13079;SDS011;6606;49.154;9.280;2022-08-20T01:30:24;3.80;;;2.90;;
13079;SDS011;6606;49.154;9.280;2022-08-20T01:32:52;3.75;;;2.80;;
13079;SDS011;6606;49.154;9.280;2022-08-20T01:35:20;2.65;;;2.45;;
13079;SDS011;6606;49.154;9.280;2022-08-20T01:37:47;2.80;;;2.60;;
13079;SDS011;6606;49.154;9.280;2022-08-20T01:40:16;3.65;;;3.00;;
13079;SDS011;6606;49.154;9.280;2022-08-20T01:42:47;2.90;;;2.70;;
13079;SDS011;6606;49.154;9.280;2022-08-20T01:45:16;3.47;;;3.13;;
13079;SDS011;6606;49.154;9.280;2022-08-20T01:47:42;3.00;;;2.80;;
13079;SDS011;6606;49.154;9.280;2022-08-20T01:50:13;3.65;;;2.92;;
13079;SDS011;6606;49.154;9.280;2022-08-20T01:52:45;3.47;;;2.72;;
13079;SDS011;6606;49.154;9.280;2022-08-20T01:55:17;3.35;;;2.70;;
13079;SDS011;6606;49.154;9.280;2022-08-20T01:57:44;3.15;;;2.85;;
13079;SDS011;6606;49.154;9.280;2022-08-20T02:00:13;2.92;;;2.22;;
13079;SDS011;6606;49.154;9.280;2022-08-20T02:02:43;3.35;;;2.20;;
13079;SDS011;6606;49.154;9.280;2022-08-20T02:05:10;2.45;;;2.25;;
13079;SDS011;6606;49.154;9.280;2022-08-20T02:07:36;2.22;;;2.00;;
13079;SDS011;6606;49.154;9.280;2022-08-20T02:10:04;2.20;;;2.00;;
13079;SDS011;6606;49.154;9.280;2022-08-20T02:12:32;2.30;;;1.52;;
13079;SDS011;6606;49.154;9.280;2022-08-20T02:14:59;2.97;;;1.75;;
13079;SDS011;6606;49.154;9.280;2022-08-20T02:17:27;2.03;;;1.73;;
13079;SDS011;6606;49.154;9.280;2022-08-20T02:19:55;2.30;;;1.73;;
13079;SDS011;6606;49.154;9.280;2022-08-20T02:22:25;2.25;;;1.70;;
13079;SDS011;6606;49.154;9.280;2022-08-20T02:24:56;2.17;;;1.70;;
13079;SDS011;6606;49.154;9.280;2022-08-20T02:27:23;1.60;;;1.50;;
13079;SDS011;6606;49.154;9.280;2022-08-20T02:29:50;4.00;;;1.60;;
13079;SDS011;6606;49.154;9.280;2022-08-20T02:32:18;2.67;;;1.80;;
13079;SDS011;6606;49.154;9.280;2022-08-20T02:34:46;2.80;;;1.70;;
13079;SDS011;6606;49.154;9.280;2022-08-20T02:37:13;1.98;;;1.77;;
13079;SDS011;6606;49.154;9.280;2022-08-20T02:39:41;2.10;;;1.70;;
13079;SDS011;6606;49.154;9.280;2022-08-20T02:42:07;2.22;;;1.83;;
13079;SDS011;6606;49.154;9.280;2022-08-20T02:44:36;2.00;;;1.52;;
13079;SDS011;6606;49.154;9.280;2022-08-20T02:47:03;1.83;;;1.50;;
13079;SDS011;6606;49.154;9.280;2022-08-20T02:49:30;2.03;;;1.75;;
13079;SDS011;6606;49.154;9.280;2022-08-20T02:51:58;1.98;;;1.52;;
13079;SDS011;6606;49.154;9.280;2022-08-20T02:54:25;3.47;;;1.75;;
13079;SDS011;6606;49.154;9.280;2022-08-20T02:56:53;3.95;;;1.73;;
13079;SDS011;6606;49.154;9.280;2022-08-20T02:59:19;1.85;;;1.60;;
13079;SDS011;6606;49.154;9.280;2022-08-20T03:01:46;3.20;;;1.83;;
13079;SDS011;6606;49.154;9.280;2022-08-20T03:04:15;2.70;;;1.70;;
13079;SDS011;6606;49.154;9.280;2022-08-20T03:06:42;1.63;;;1.52;;
13079;SDS011;6606;49.154;9.280;2022-08-20T03:09:10;1.95;;;1.70;;
13079;SDS011;6606;49.154;9.280;2022-08-20T03:11:37;1.73;;;1.60;;
13079;SDS011;6606;49.154;9.280;2022-08-20T03:14:04;2.58;;;1.48;;
13079;SDS011;6606;49.154;9.280;2022-08-20T03:16:30;2.13;;;1.65;;
13079;SDS011;6606;49.154;9.280;2022-08-20T03:18:57;1.50;;;1.40;;
13079;SDS011;6606;49.154;9.280;2022-08-20T03:21:24;1.50;;;1.40;;
13079;SDS011;6606;49.154;9.280;2022-08-20T03:23:51;2.88;;;1.30;;
13079;SDS011;6606;49.154;9.280;2022-08-20T03:26:19;1.95;;;1.60;;
13079;SDS011;6606;49.154;9.280;2022-08-20T03:28:46;2.50;;;1.48;;
13079;SDS011;6606;49.154;9.280;2022-08-20T03:31:12;3.30;;;1.40;;
13079;SDS011;6606;49.154;9.280;2022-08-20T03:33:40;2.60;;;1.58;;
13079;SDS011;6606;49.154;9.280;2022-08-20T03:36:07;2.00;;;1.63;;
13079;SDS011;6606;49.154;9.280;2022-08-20T03:38:34;1.73;;;1.50;;
13079;SDS011;6606;49.154;9.280;2022-08-20T03:41:02;2.50;;;1.58;;
13079;SDS011;6606;49.154;9.280;2022-08-20T03:43:30;3.33;;;1.65;;
13079;SDS011;6606;49.154;9.280;2022-08-20T03:45:57;1.50;;;1.40;;
13079;SDS011;6606;49.154;9.280;2022-08-20T03:48:24;1.60;;;1.50;;
13079;SDS011;6606;49.154;9.280;2022-08-20T03:50:51;2.22;;;1.50;;
13079;SDS011;6606;49.154;9.280;2022-08-20T03:53:17;1.85;;;1.60;;
13079;SDS011;6606;49.154;9.280;2022-08-20T03:55:45;1.92;;;1.60;;
13079;SDS011;6606;49.154;9.280;2022-08-20T03:58:14;2.50;;;1.60;;
13079;SDS011;6606;49.154;9.280;2022-08-20T04:00:45;1.65;;;1.40;;
13079;SDS011;6606;49.154;9.280;2022-08-20T04:03:15;1.63;;;1.52;;
13079;SDS011;6606;49.154;9.280;2022-08-20T04:05:42;1.90;;;1.50;;
13079;SDS011;6606;49.154;9.280;2022-08-20T04:08:11;1.45;;;1.35;;
13079;SDS011;6606;49.154;9.280;2022-08-20T04:10:40;1.80;;;1.65;;
13079;SDS011;6606;49.154;9.280;2022-08-20T04:13:08;1.90;;;1.65;;
13079;SDS011;6606;49.154;9.280;2022-08-20T04:15:35;2.10;;;1.60;;
13079;SDS011;6606;49.154;9.280;2022-08-20T04:18:06;2.83;;;1.42;;
13079;SDS011;6606;49.154;9.280;2022-08-20T04:20:34;2.15;;;1.60;;
13079;SDS011;6606;49.154;9.280;2022-08-20T04:23:03;1.92;;;1.73;;
13079;SDS011;6606;49.154;9.280;2022-08-20T04:25:31;1.60;;;1.50;;
13079;SDS011;6606;49.154;9.280;2022-08-20T04:27:58;2.03;;;1.73;;
13079;SDS011;6606;49.154;9.280;2022-08-20T04:30:27;1.95;;;1.52;;
13079;SDS011;6606;49.154;9.280;2022-08-20T04:32:55;1.70;;;1.60;;
13079;SDS011;6606;49.154;9.280;2022-08-20T04:35:25;1.92;;;1.70;;
13079;SDS011;6606;49.154;9.280;2022-08-20T04:37:57;2.40;;;1.90;;
13079;SDS011;6606;49.154;9.280;2022-08-20T04:40:26;2.30;;;1.58;;
13079;SDS011;6606;49.154;9.280;2022-08-20T04:43:10;1.65;;;1.52;;
13079;SDS011;6606;49.154;9.280;2022-08-20T04:45:37;2.13;;;1.83;;
13079;SDS011;6606;49.154;9.280;2022-08-20T04:48:04;2.00;;;1.70;;
13079;SDS011;6606;49.154;9.280;2022-08-20T04:50:34;2.00;;;1.80;;
13079;SDS011;6606;49.154;9.280;2022-08-20T04:53:02;2.05;;;1.50;;
13079;SDS011;6606;49.154;9.280;2022-08-20T04:55:30;1.88;;;1.67;;
13079;SDS011;6606;49.154;9.280;2022-08-20T04:58:00;2.65;;;1.77;;
13079;SDS011;6606;49.154;9.280;2022-08-20T05:00:28;2.40;;;2.08;;
13079;SDS011;6606;49.154;9.280;2022-08-20T05:02:55;2.10;;;1.90;;
13079;SDS011;6606;49.154;9.280;2022-08-20T05:05:22;2.30;;;2.10;;
13079;SDS011;6606;49.154;9.280;2022-08-20T05:07:50;2.00;;;1.80;;
13079;SDS011;6606;49.154;9.280;2022-08-20T05:10:20;2.03;;;1.70;;
13079;SDS011;6606;49.154;9.280;2022-08-20T05:12:47;2.03;;;1.83;;
13079;SDS011;6606;49.154;9.280;2022-08-20T05:15:14;3.15;;;2.10;;
13079;SDS011;6606;49.154;9.280;2022-08-20T05:17:42;2.78;;;2.20;;
13079;SDS011;6606;49.154;9.280;2022-08-20T05:20:11;2.58;;;1.92;;
13079;SDS011;6606;49.154;9.280;2022-08-20T05:22:43;1.80;;;1.70;;
13079;SDS011;6606;49.154;9.280;2022-08-20T05:25:11;2.17;;;1.98;;
13079;SDS011;6606;49.154;9.280;2022-08-20T05:27:38;2.17;;;1.98;;
13079;SDS011;6606;49.154;9.280;2022-08-20T05:30:07;2.33;;;2.13;;
13079;SDS011;6606;49.154;9.280;2022-08-20T05:32:36;2.47;;;2.28;;
13079;SDS011;6606;49.154;9.280;2022-08-20T05:35:04;2.20;;;2.00;;
13079;SDS011;6606;49.154;9.280;2022-08-20T05:37:33;2.20;;;2.00;;
13079;SDS011;6606;49.154;9.280;2022-08-20T05:40:00;3.47;;;2.22;;
13079;SDS011;6606;49.154;9.280;2022-08-20T05:42:28;2.65;;;2.20;;
13079;SDS011;6606;49.154;9.280;2022-08-20T05:44:55;2.20;;;2.00;;
13079;SDS011;6606;49.154;9.280;2022-08-20T05:47:22;2.30;;;1.80;;
13079;SDS011;6606;49.154;9.280;2022-08-20T05:49:53;2.33;;;2.13;;
13079;SDS011;6606;49.154;9.280;2022-08-20T05:52:19;2.40;;;2.20;;
13079;SDS011;6606;49.154;9.280;2022-08-20T05:54:46;3.35;;;2.20;;
13079;SDS011;6606;49.154;9.280;2022-08-20T05:57:15;2.92;;;2.55;;
13079;SDS011;6606;49.154;9.280;2022-08-20T05:59:44;2.72;;;1.88;;
13079;SDS011;6606;49.154;9.280;2022-08-20T06:02:12;3.47;;;2.35;;
13079;SDS011;6606;49.154;9.280;2022-08-20T06:04:52;3.33;;;2.10;;
13079;SDS011;6606;49.154;9.280;2022-08-20T06:07:19;2.90;;;2.50;;
13079;SDS011;6606;49.154;9.280;2022-08-20T06:09:46;2.97;;;2.42;;
13079;SDS011;6606;49.154;9.280;2022-08-20T06:12:13;3.00;;;2.50;;
13079;SDS011;6606;49.154;9.280;2022-08-20T06:14:40;3.13;;;2.10;;
13079;SDS011;6606;49.154;9.280;2022-08-20T06:17:09;2.78;;;2.30;;
13079;SDS011;6606;49.154;9.280;2022-08-20T06:19:37;3.15;;;1.98;;
13079;SDS011;6606;49.154;9.280;2022-08-20T06:22:05;2.53;;;2.13;;
13079;SDS011;6606;49.154;9.280;2022-08-20T06:24:32;2.67;;;2.22;;
13079;SDS011;6606;49.154;9.280;2022-08-20T06:26:59;2.28;;;2.08;;
13079;SDS011;6606;49.154;9.280;2022-08-20T06:29:29;2.55;;;2.17;;
13079;SDS011;6606;49.154;9.280;2022-08-20T06:31:57;2.58;;;2.20;;
13079;SDS011;6606;49.154;9.280;2022-08-20T06:34:26;2.35;;;2.13;;
13079;SDS011;6606;49.154;9.280;2022-08-20T06:36:54;8.32;;;2.50;;
13079;SDS011;6606;49.154;9.280;2022-08-20T06:39:21;2.90;;;2.17;;
13079;SDS011;6606;49.154;9.280;2022-08-20T06:41:48;4.00;;;2.50;;
13079;SDS011;6606;49.154;9.280;2022-08-20T06:44:16;2.63;;;2.25;;
13079;SDS011;6606;49.154;9.280;2022-08-20T06:46:44;3.38;;;2.20;;
13079;SDS011;6606;49.154;9.280;2022-08-20T06:49:11;2.88;;;2.10;;
13079;SDS011;6606;49.154;9.280;2022-08-20T06:51:39;2.50;;;2.30;;
13079;SDS011;6606;49.154;9.280;2022-08-20T06:54:05;3.33;;;2.33;;
13079;SDS011;6606;49.154;9.280;2022-08-20T06:56:32;3.70;;;2.30;;
13079;SDS011;6606;49.154;9.280;2022-08-20T06:58:59;3.42;;;2.20;;
13079;SDS011;6606;49.154;9.280;2022-08-20T07:01:26;2.90;;;2.28;;
13079;SDS011;6606;49.154;9.280;2022-08-20T07:03:52;2.88;;;2.40;;
13079;SDS011;6606;49.154;9.280;2022-08-20T07:06:19;3.15;;;2.20;;
13079;SDS011;6606;49.154;9.280;2022-08-20T07:08:47;3.92;;;2.45;;
13079;SDS011;6606;49.154;9.280;2022-08-20T07:11:14;3.58;;;2.83;;
13079;SDS011;6606;49.154;9.280;2022-08-20T07:13:41;3.33;;;2.35;;
13079;SDS011;6606;49.154;9.280;2022-08-20T07:16:07;2.50;;;2.30;;
13079;SDS011;6606;49.154;9.280;2022-08-20T07:18:34;3.28;;;2.97;;
13079;SDS011;6606;49.154;9.280;2022-08-20T07:21:01;2.92;;;2.42;;
13079;SDS011;6606;49.154;9.280;2022-08-20T07:23:28;4.72;;;2.92;;
13079;SDS011;6606;49.154;9.280;2022-08-20T07:25:57;3.33;;;2.75;;
13079;SDS011;6606;49.154;9.280;2022-08-20T07:28:25;4.72;;;2.90;;
13079;SDS011;6606;49.154;9.280;2022-08-20T07:30:54;2.85;;;2.60;;
13079;SDS011;6606;49.154;9.280;2022-08-20T07:33:38;3.30;;;3.00;;
13079;SDS011;6606;49.154;9.280;2022-08-20T07:36:06;2.67;;;2.47;;
13079;SDS011;6606;49.154;9.280;2022-08-20T07:38:33;3.10;;;2.80;;
13079;SDS011;6606;49.154;9.280;2022-08-20T07:41:03;4.57;;;2.60;;
13079;SDS011;6606;49.154;9.280;2022-08-20T07:43:32;2.90;;;2.67;;
13079;SDS011;6606;49.154;9.280;2022-08-20T07:45:59;4.22;;;3.05;;
13079;SDS011;6606;49.154;9.280;2022-08-20T07:48:35;3.67;;;3.03;;
13079;SDS011;6606;49.154;9.280;2022-08-20T07:51:04;3.65;;;3.10;;
13079;SDS011;6606;49.154;9.280;2022-08-20T07:53:32;4.82;;;3.28;;
13079;SDS011;6606;49.154;9.280;2022-08-20T07:56:00;3.83;;;3.10;;
13079;SDS011;6606;49.154;9.280;2022-08-20T07:58:31;3.65;;;2.88;;
13079;SDS011;6606;49.154;9.280;2022-08-20T08:00:59;3.33;;;3.03;;
13079;SDS011;6606;49.154;9.280;2022-08-20T08:03:26;3.30;;;3.00;;
13079;SDS011;6606;49.154;9.280;2022-08-20T08:05:53;4.15;;;3.28;;
13079;SDS011;6606;49.154;9.280;2022-08-20T08:08:21;4.68;;;3.45;;
13079;SDS011;6606;49.154;9.280;2022-08-20T08:10:51;4.55;;;2.83;;
13079;SDS011;6606;49.154;9.280;2022-08-20T08:13:33;3.33;;;3.03;;
13079;SDS011;6606;49.154;9.280;2022-08-20T08:16:04;4.85;;;3.10;;
13079;SDS011;6606;49.154;9.280;2022-08-20T08:18:34;3.40;;;2.47;;
13079;SDS011;6606;49.154;9.280;2022-08-20T08:21:05;4.80;;;2.60;;
13079;SDS011;6606;49.154;9.280;2022-08-20T08:23:33;3.53;;;2.88;;
13079;SDS011;6606;49.154;9.280;2022-08-20T08:26:00;3.15;;;2.70;;
13079;SDS011;6606;49.154;9.280;2022-08-20T08:28:27;3.13;;;2.83;;
13079;SDS011;6606;49.154;9.280;2022-08-20T08:30:56;3.10;;;2.42;;
13079;SDS011;6606;49.154;9.280;2022-08-20T08:33:24;3.15;;;2.60;;
13079;SDS011;6606;49.154;9.280;2022-08-20T08:35:55;2.80;;;2.50;;
13079;SDS011;6606;49.154;9.280;2022-08-20T08:38:24;3.28;;;2.72;;
13079;SDS011;6606;49.154;9.280;2022-08-20T08:40:52;3.08;;;2.80;;
13079;SDS011;6606;49.154;9.280;2022-08-20T08:43:21;3.83;;;2.55;;
13079;SDS011;6606;49.154;9.280;2022-08-20T08:45:53;3.50;;;2.97;;
13079;SDS011;6606;49.154;9.280;2022-08-20T08:48:29;3.67;;;2.60;;
13079;SDS011;6606;49.154;9.280;2022-08-20T08:50:59;4.20;;;3.05;;
13079;SDS011;6606;49.154;9.280;2022-08-20T08:53:30;4.65;;;2.75;;
13079;SDS011;6606;49.154;9.280;2022-08-20T08:56:00;3.08;;;2.78;;
13079;SDS011;6606;49.154;9.280;2022-08-20T08:58:27;5.03;;;2.92;;
13079;SDS011;6606;49.154;9.280;2022-08-20T09:00:54;5.15;;;3.10;;
13079;SDS011;6606;49.154;9.280;2022-08-20T09:03:24;4.55;;;2.60;;
13079;SDS011;6606;49.154;9.280;2022-08-20T09:05:54;3.88;;;3.13;;
13079;SDS011;6606;49.154;9.280;2022-08-20T09:08:25;5.53;;;2.70;;
13079;SDS011;6606;49.154;9.280;2022-08-20T09:10:59;4.32;;;2.80;;
13079;SDS011;6606;49.154;9.280;2022-08-20T09:13:27;3.58;;;3.20;;
13079;SDS011;6606;49.154;9.280;2022-08-20T09:15:54;5.47;;;4.18;;
13079;SDS011;6606;49.154;9.280;2022-08-20T09:18:22;5.20;;;2.85;;
13079;SDS011;6606;49.154;9.280;2022-08-20T09:20:49;2.50;;;2.30;;
13079;SDS011;6606;49.154;9.280;2022-08-20T09:23:16;3.72;;;2.63;;
13079;SDS011;6606;49.154;9.280;2022-08-20T09:25:43;2.90;;;2.28;;
13079;SDS011;6606;49.154;9.280;2022-08-20T09:28:09;3.88;;;2.30;;
13079;SDS011;6606;49.154;9.280;2022-08-20T09:30:36;7.45;;;2.55;;
13079;SDS011;6606;49.154;9.280;2022-08-20T09:33:03;3.53;;;2.22;;
13079;SDS011;6606;49.154;9.280;2022-08-20T09:35:31;2.47;;;2.13;;
13079;SDS011;6606;49.154;9.280;2022-08-20T09:37:58;2.90;;;2.60;;
13079;SDS011;6606;49.154;9.280;2022-08-20T09:40:25;3.45;;;2.60;;
13079;SDS011;6606;49.154;9.280;2022-08-20T09:42:51;3.88;;;2.60;;
13079;SDS011;6606;49.154;9.280;2022-08-20T09:45:18;4.15;;;2.60;;
13079;SDS011;6606;49.154;9.280;2022-08-20T09:47:45;3.20;;;2.90;;
13079;SDS011;6606;49.154;9.280;2022-08-20T09:50:12;4.35;;;2.75;;
13079;SDS011;6606;49.154;9.280;2022-08-20T09:52:42;4.10;;;2.80;;
13079;SDS011;6606;49.154;9.280;2022-08-20T09:55:14;2.50;;;2.30;;
13079;SDS011;6606;49.154;9.280;2022-08-20T09:57:46;3.70;;;2.50;;
13079;SDS011;6606;49.154;9.280;2022-08-20T10:00:13;2.90;;;2.60;;
13079;SDS011;6606;49.154;9.280;2022-08-20T10:02:42;4.07;;;3.60;;
13079;SDS011;6606;49.154;9.280;2022-08-20T10:05:09;3.58;;;3.28;;
13079;SDS011;6606;49.154;9.280;2022-08-20T10:07:37;4.00;;;3.58;;
13079;SDS011;6606;49.154;9.280;2022-08-20T10:10:08;3.58;;;3.13;;
13079;SDS011;6606;49.154;9.280;2022-08-20T10:12:37;3.13;;;2.80;;
13079;SDS011;6606;49.154;9.280;2022-08-20T10:15:06;3.47;;;3.13;;
13079;SDS011;6606;49.154;9.280;2022-08-20T10:17:35;2.80;;;2.60;;
13079;SDS011;6606;49.154;9.280;2022-08-20T10:20:03;5.32;;;2.60;;
13079;SDS011;6606;49.154;9.280;2022-08-20T10:22:30;3.75;;;2.60;;
13079;SDS011;6606;49.154;9.280;2022-08-20T10:24:57;3.17;;;2.40;;
13079;SDS011;6606;49.154;9.280;2022-08-20T10:27:25;4.38;;;2.80;;
13079;SDS011;6606;49.154;9.280;2022-08-20T10:29:52;3.53;;;2.60;;
13079;SDS011;6606;49.154;9.280;2022-08-20T10:32:18;3.72;;;2.45;;
13079;SDS011;6606;49.154;9.280;2022-08-20T10:34:45;4.60;;;2.47;;
13079;SDS011;6606;49.154;9.280;2022-08-20T10:37:13;2.90;;;2.60;;
13079;SDS011;6606;49.154;9.280;2022-08-20T10:39:41;3.80;;;2.60;;
13079;SDS011;6606;49.154;9.280;2022-08-20T10:42:08;5.65;;;2.70;;
13079;SDS011;6606;49.154;9.280;2022-08-20T10:44:36;3.25;;;2.90;;
13079;SDS011;6606;49.154;9.280;2022-08-20T10:47:11;5.00;;;2.45;;
13079;SDS011;6606;49.154;9.280;2022-08-20T10:49:43;3.08;;;2.40;;
13079;SDS011;6606;49.154;9.280;2022-08-20T10:52:09;4.15;;;2.22;;
13079;SDS011;6606;49.154;9.280;2022-08-20T10:54:36;3.20;;;2.30;;
13079;SDS011;6606;49.154;9.280;2022-08-20T10:57:16;3.22;;;2.38;;
13079;SDS011;6606;49.154;9.280;2022-08-20T10:59:49;4.70;;;2.22;;
13079;SDS011;6606;49.154;9.280;2022-08-20T11:02:17;3.05;;;2.15;;
13079;SDS011;6606;49.154;9.280;2022-08-20T11:04:44;2.30;;;2.10;;
13079;SDS011;6606;49.154;9.280;2022-08-20T11:07:12;3.38;;;2.40;;
13079;SDS011;6606;49.154;9.280;2022-08-20T11:09:41;2.90;;;2.70;;
13079;SDS011;6606;49.154;9.280;2022-08-20T11:12:09;4.40;;;2.60;;
13079;SDS011;6606;49.154;9.280;2022-08-20T11:14:36;2.72;;;2.53;;
13079;SDS011;6606;49.154;9.280;2022-08-20T11:17:04;3.70;;;2.22;;
13079;SDS011;6606;49.154;9.280;2022-08-20T11:19:31;3.13;;;2.25;;
13079;SDS011;6606;49.154;9.280;2022-08-20T11:21:59;4.32;;;2.10;;
13079;SDS011;6606;49.154;9.280;2022-08-20T11:24:25;2.08;;;1.70;;
13079;SDS011;6606;49.154;9.280;2022-08-20T11:26:52;3.13;;;1.90;;
13079;SDS011;6606;49.154;9.280;2022-08-20T11:29:19;2.38;;;1.90;;
13079;SDS011;6606;49.154;9.280;2022-08-20T11:31:49;3.20;;;1.90;;
13079;SDS011;6606;49.154;9.280;2022-08-20T11:34:17;3.38;;;2.10;;
13079;SDS011;6606;49.154;9.280;2022-08-20T11:36:44;2.28;;;1.80;;
13079;SDS011;6606;49.154;9.280;2022-08-20T11:39:12;2.15;;;2.00;;
13079;SDS011;6606;49.154;9.280;2022-08-20T11:41:39;3.22;;;1.90;;
13079;SDS011;6606;49.154;9.280;2022-08-20T11:44:06;3.53;;;1.88;;
13079;SDS011;6606;49.154;9.280;2022-08-20T11:46:32;3.53;;;2.00;;
13079;SDS011;6606;49.154;9.280;2022-08-20T11:48:59;2.65;;;2.08;;
13079;SDS011;6606;49.154;9.280;2022-08-20T11:51:30;2.63;;;1.88;;
13079;SDS011;6606;49.154;9.280;2022-08-20T11:54:03;2.35;;;1.90;;
13079;SDS011;6606;49.154;9.280;2022-08-20T11:56:31;2.83;;;1.80;;
13079;SDS011;6606;49.154;9.280;2022-08-20T11:58:58;4.35;;;1.80;;
13079;SDS011;6606;49.154;9.280;2022-08-20T12:01:25;2.90;;;1.70;;
13079;SDS011;6606;49.154;9.280;2022-08-20T12:03:52;1.90;;;1.70;;
13079;SDS011;6606;49.154;9.280;2022-08-20T12:06:18;2.05;;;1.85;;
13079;SDS011;6606;49.154;9.280;2022-08-20T12:08:46;1.88;;;1.67;;
13079;SDS011;6606;49.154;9.280;2022-08-20T12:11:13;1.58;;;1.30;;
13079;SDS011;6606;49.154;9.280;2022-08-20T12:13:40;1.73;;;1.30;;
13079;SDS011;6606;49.154;9.280;2022-08-20T12:16:07;1.98;;;1.50;;
13079;SDS011;6606;49.154;9.280;2022-08-20T12:18:33;2.08;;;1.70;;
13079;SDS011;6606;49.154;9.280;2022-08-20T12:21:00;2.92;;;1.60;;
13079;SDS011;6606;49.154;9.280;2022-08-20T12:23:27;2.15;;;1.50;;
13079;SDS011;6606;49.154;9.280;2022-08-20T12:25:55;2.95;;;1.80;;
13079;SDS011;6606;49.154;9.280;2022-08-20T12:28:22;1.95;;;1.73;;
13079;SDS011;6606;49.154;9.280;2022-08-20T12:30:48;2.05;;;1.52;;
13079;SDS011;6606;49.154;9.280;2022-08-20T12:33:15;2.63;;;1.27;;
13079;SDS011;6606;49.154;9.280;2022-08-20T12:35:41;1.60;;;1.20;;
13079;SDS011;6606;49.154;9.280;2022-08-20T12:38:08;3.22;;;1.40;;
13079;SDS011;6606;49.154;9.280;2022-08-20T12:40:35;1.52;;;1.42;;
13079;SDS011;6606;49.154;9.280;2022-08-20T12:43:03;1.58;;;1.40;;
13079;SDS011;6606;49.154;9.280;2022-08-20T12:45:30;1.60;;;1.50;;
13079;SDS011;6606;49.154;9.280;2022-08-20T12:48:01;2.17;;;1.50;;
13079;SDS011;6606;49.154;9.280;2022-08-20T12:50:30;2.80;;;1.60;;
13079;SDS011;6606;49.154;9.280;2022-08-20T12:52:56;2.05;;;1.63;;
13079;SDS011;6606;49.154;9.280;2022-08-20T12:55:23;1.60;;;1.50;;
13079;SDS011;6606;49.154;9.280;2022-08-20T12:57:51;1.73;;;1.55;;
13079;SDS011;6606;49.154;9.280;2022-08-20T13:00:23;1.65;;;1.55;;
13079;SDS011;6606;49.154;9.280;2022-08-20T13:02:52;2.20;;;1.77;;
13079;SDS011;6606;49.154;9.280;2022-08-20T13:05:20;1.83;;;1.58;;
13079;SDS011;6606;49.154;9.280;2022-08-20T13:07:47;1.85;;;1.60;;
13079;SDS011;6606;49.154;9.280;2022-08-20T13:10:16;2.38;;;1.70;;
13079;SDS011;6606;49.154;9.280;2022-08-20T13:12:45;2.92;;;1.95;;
13079;SDS011;6606;49.154;9.280;2022-08-20T13:15:12;1.88;;;1.42;;
13079;SDS011;6606;49.154;9.280;2022-08-20T13:17:41;1.70;;;1.60;;
13079;SDS011;6606;49.154;9.280;2022-08-20T13:20:09;2.40;;;1.90;;
13079;SDS011;6606;49.154;9.280;2022-08-20T13:22:37;1.33;;;1.20;;
13079;SDS011;6606;49.154;9.280;2022-08-20T13:25:04;2.15;;;1.45;;
13079;SDS011;6606;49.154;9.280;2022-08-20T13:27:32;3.47;;;1.52;;
13079;SDS011;6606;49.154;9.280;2022-08-20T13:30:03;2.85;;;1.80;;
13079;SDS011;6606;49.154;9.280;2022-08-20T13:32:31;1.60;;;1.50;;
13079;SDS011;6606;49.154;9.280;2022-08-20T13:34:59;1.83;;;1.38;;
13079;SDS011;6606;49.154;9.280;2022-08-20T13:37:27;1.75;;;1.30;;
13079;SDS011;6606;49.154;9.280;2022-08-20T13:39:54;2.65;;;1.52;;
13079;SDS011;6606;49.154;9.280;2022-08-20T13:42:22;2.25;;;1.60;;
13079;SDS011;6606;49.154;9.280;2022-08-20T13:44:50;2.85;;;1.52;;
13079;SDS011;6606;49.154;9.280;2022-08-20T13:47:17;3.20;;;1.30;;
13079;SDS011;6606;49.154;9.280;2022-08-20T13:49:46;3.15;;;1.60;;
13079;SDS011;6606;49.154;9.280;2022-08-20T13:52:15;1.92;;;1.45;;
13079;SDS011;6606;49.154;9.280;2022-08-20T13:54:42;1.65;;;1.40;;
13079;SDS011;6606;49.154;9.280;2022-08-20T13:57:09;3.97;;;1.50;;
13079;SDS011;6606;49.154;9.280;2022-08-20T13:59:39;2.28;;;1.70;;
13079;SDS011;6606;49.154;9.280;2022-08-20T14:02:09;3.83;;;1.55;;
13079;SDS011;6606;49.154;9.280;2022-08-20T14:04:37;3.03;;;1.80;;
13079;SDS011;6606;49.154;9.280;2022-08-20T14:07:07;2.40;;;1.50;;
13079;SDS011;6606;49.154;9.280;2022-08-20T14:09:37;3.35;;;1.55;;
13079;SDS011;6606;49.154;9.280;2022-08-20T14:12:05;2.17;;;1.60;;
13079;SDS011;6606;49.154;9.280;2022-08-20T14:14:32;2.75;;;1.55;;
13079;SDS011;6606;49.154;9.280;2022-08-20T14:17:01;1.60;;;1.50;;
13079;SDS011;6606;49.154;9.280;2022-08-20T14:19:38;3.20;;;1.50;;
13079;SDS011;6606;49.154;9.280;2022-08-20T14:22:04;2.70;;;1.40;;
13079;SDS011;6606;49.154;9.280;2022-08-20T14:24:31;1.67;;;1.50;;
13079;SDS011;6606;49.154;9.280;2022-08-20T14:27:02;1.50;;;1.23;;
13079;SDS011;6606;49.154;9.280;2022-08-20T14:29:30;1.40;;;1.27;;
13079;SDS011;6606;49.154;9.280;2022-08-20T14:31:58;1.75;;;1.45;;
13079;SDS011;6606;49.154;9.280;2022-08-20T14:34:25;2.92;;;1.40;;
13079;SDS011;6606;49.154;9.280;2022-08-20T14:36:52;4.50;;;1.40;;
13079;SDS011;6606;49.154;9.280;2022-08-20T14:39:18;1.60;;;1.25;;
13079;SDS011;6606;49.154;9.280;2022-08-20T14:41:45;1.95;;;1.40;;
13079;SDS011;6606;49.154;9.280;2022-08-20T14:44:13;1.33;;;1.10;;
13079;SDS011;6606;49.154;9.280;2022-08-20T14:46:40;1.25;;;1.15;;
13079;SDS011;6606;49.154;9.280;2022-08-20T14:49:07;2.08;;;1.05;;
13079;SDS011;6606;49.154;9.280;2022-08-20T14:51:33;1.48;;;1.30;;
13079;SDS011;6606;49.154;9.280;2022-08-20T14:54:01;1.45;;;1.35;;
13079;SDS011;6606;49.154;9.280;2022-08-20T14:56:28;1.88;;;1.60;;
13079;SDS011;6606;49.154;9.280;2022-08-20T14:58:54;1.90;;;1.60;;
13079;SDS011;6606;49.154;9.280;2022-08-20T15:01:22;1.40;;;1.30;;
13079;SDS011;6606;49.154;9.280;2022-08-20T15:03:49;1.80;;;1.30;;
13079;SDS011;6606;49.154;9.280;2022-08-20T15:06:15;1.40;;;1.30;;